Time;durP1;ratioP1;P1;durP2;ratioP2;P2;SDS_P1;SDS_P2;PMS_P1;PMS_P2;Temp;Humidity;BMP_temperature;BMP_pressure;BME280_temperature;BME280_humidity;BME280_pressure;Samples;Min_cycle;Max_cycle;Signal;HPM_P1;HPM_P2
2021/11/01 00:00:00;;;;;;;8.78;7.87;;;;;;;16.64;46.87;100379.96;1801085;78;21015;-68
2021/11/01 00:02:27;;;;;;;7.95;7.15;;;;;;;16.62;46.87;100380.66;1794794;78;21048;-68
2021/11/01 00:04:53;;;;;;;8.93;7.35;;;;;;;16.62;46.84;100378.50;1793061;78;21060;-69
2021/11/01 00:07:21;;;;;;;9.23;7.80;;;;;;;16.61;46.91;100381.70;1784818;78;21061;-69
2021/11/01 00:09:47;;;;;;;7.05;6.37;;;;;;;16.60;46.90;100382.72;1735412;81;21061;-69
2021/11/01 00:12:14;;;;;;;9.48;7.70;;;;;;;16.58;46.92;100376.71;1759879;80;21032;-70
2021/11/01 00:14:42;;;;;;;9.05;8.15;;;;;;;16.57;46.90;100379.06;1760775;78;21035;-68
2021/11/01 00:17:08;;;;;;;8.03;7.22;;;;;;;16.57;46.92;100381.74;1745626;78;21025;-69
2021/11/01 00:19:35;;;;;;;8.85;7.83;;;;;;;16.56;46.91;100377.42;1765228;79;21116;-68
2021/11/01 00:22:01;;;;;;;8.95;7.53;;;;;;;16.54;46.94;100378.12;1766330;78;21078;-69
2021/11/01 00:24:28;;;;;;;8.55;7.50;;;;;;;16.54;46.94;100368.73;1765308;78;21005;-69
2021/11/01 00:26:54;;;;;;;8.58;7.67;;;;;;;16.54;46.96;100374.09;1762819;78;21006;-70
2021/11/01 00:29:22;;;;;;;8.48;7.60;;;;;;;16.53;46.95;100366.23;1761743;78;21509;-69
2021/11/01 00:31:51;;;;;;;8.18;7.37;;;;;;;16.51;46.95;100367.77;1752841;78;21315;-69
2021/11/01 00:34:17;;;;;;;8.53;7.72;;;;;;;16.50;46.94;100368.28;1763701;78;21520;-69
2021/11/01 00:36:44;;;;;;;8.28;7.25;;;;;;;16.50;46.98;100366.13;1766716;78;21030;-69
2021/11/01 00:39:10;;;;;;;7.87;7.08;;;;;;;16.49;46.96;100359.08;1746703;81;21061;-70
2021/11/01 00:41:37;;;;;;;8.23;7.37;;;;;;;16.49;46.95;100365.78;1748201;81;21052;-69
2021/11/01 00:44:03;;;;;;;8.83;8.03;;;;;;;16.46;46.97;100356.28;1746646;81;21026;-68
2021/11/01 00:46:30;;;;;;;9.38;7.80;;;;;;;16.46;46.97;100352.78;1742662;81;21557;-69
2021/11/01 00:48:57;;;;;;;8.48;7.42;;;;;;;16.46;46.98;100348.76;1776115;80;21544;-68
2021/11/01 00:51:23;;;;;;;8.73;7.45;;;;;;;16.44;46.97;100348.13;1755904;81;21027;-70
2021/11/01 00:53:50;;;;;;;8.50;7.70;;;;;;;16.43;46.94;100347.78;1726601;80;21044;-70
2021/11/01 00:56:16;;;;;;;9.20;7.80;;;;;;;16.42;47.00;100347.48;1744805;80;21065;-68
2021/11/01 00:58:43;;;;;;;8.55;7.75;;;;;;;16.41;46.97;100349.31;1755202;79;21065;-69
2021/11/01 01:01:10;;;;;;;8.73;7.72;;;;;;;16.40;47.01;100347.67;1763120;80;21536;-69
2021/11/01 01:03:37;;;;;;;8.35;7.55;;;;;;;16.39;47.05;100347.85;1732619;80;21095;-69
2021/11/01 01:06:03;;;;;;;9.40;8.50;;;;;;;16.38;47.05;100347.03;1753045;81;21070;-69
2021/11/01 01:08:30;;;;;;;8.63;7.83;;;;;;;16.38;47.03;100344.84;1742954;80;21111;-69
2021/11/01 01:10:56;;;;;;;8.40;7.60;;;;;;;16.39;47.03;100346.52;1751106;81;21560;-69
2021/11/01 01:13:27;;;;;;;9.53;7.85;;;;;;;16.37;46.99;100345.87;1734977;80;21014;-70
2021/11/01 01:15:58;;;;;;;8.85;7.95;;;;;;;16.36;47.01;100341.52;1751069;80;21506;-69
2021/11/01 01:18:23;;;;;;;9.48;7.65;;;;;;;16.34;47.00;100335.03;1753868;81;21093;-69
2021/11/01 01:20:47;;;;;;;8.80;7.62;;;;;;;16.34;47.05;100331.50;1758043;79;21901;-68
2021/11/01 01:23:13;;;;;;;8.90;7.97;;;;;;;16.33;47.03;100335.22;1755980;79;21027;-69
2021/11/01 01:25:46;;;;;;;8.63;7.75;;;;;;;16.32;46.99;100329.00;1774278;78;21115;-69
2021/11/01 01:28:15;;;;;;;9.25;7.95;;;;;;;16.30;46.98;100326.54;1702193;82;21014;-69
2021/11/01 01:30:42;;;;;;;9.58;8.60;;;;;;;16.30;47.02;100324.34;1767825;78;21057;-70
2021/11/01 01:33:10;;;;;;;8.58;7.78;;;;;;;16.29;47.02;100324.86;1761834;79;21128;-69
2021/11/01 01:35:39;;;;;;;9.73;8.78;;;;;;;16.27;47.02;100316.19;1735648;80;21021;-69
2021/11/01 01:38:09;;;;;;;9.35;8.45;;;;;;;16.25;46.98;100316.89;1755673;79;20991;-69
2021/11/01 01:40:54;;;;;;;9.13;8.18;;;;;;;16.24;46.98;100317.89;1758768;80;21020;-69
2021/11/01 01:43:38;;;;;;;8.78;7.97;;;;;;;16.23;47.00;100312.75;1767188;79;21076;-69
2021/11/01 01:46:11;;;;;;;9.88;8.40;;;;;;;16.21;47.03;100311.59;1770994;80;21176;-69
2021/11/01 01:48:37;;;;;;;9.33;8.38;;;;;;;16.19;47.05;100308.80;1735004;81;21036;-69
2021/11/01 01:51:05;;;;;;;9.38;8.38;;;;;;;16.19;47.03;100311.47;1755836;80;21086;-69
2021/11/01 01:53:33;;;;;;;9.93;8.88;;;;;;;16.17;47.06;100308.13;1735735;81;21076;-68
2021/11/01 01:55:59;;;;;;;9.43;8.40;;;;;;;16.16;47.06;100303.28;1748738;81;21057;-69
2021/11/01 01:58:52;;;;;;;10.10;9.00;;;;;;;16.15;47.03;100296.28;1731584;80;21041;-69
2021/11/01 02:01:39;;;;;;;9.18;8.18;;;;;;;16.13;47.04;100294.30;1715430;81;21044;-69
2021/11/01 02:04:26;;;;;;;8.93;8.03;;;;;;;16.11;47.06;100290.47;1753342;80;21012;-69
2021/11/01 02:07:41;;;;;;;10.53;8.25;;;;;;;16.09;47.09;100290.34;1733892;81;21069;-68
2021/11/01 02:10:31;;;;;;;;;;;;;;;16.06;47.09;100288.03;1751454;81;21033;-68
2021/11/01 02:13:19;;;;;;;10.13;8.65;;;;;;;16.03;47.16;100285.23;1741672;81;21026;-69
2021/11/01 02:16:04;;;;;;;10.85;8.95;;;;;;;15.97;47.24;100291.33;1753425;80;21030;-69
2021/11/01 02:18:49;;;;;;;10.65;8.95;;;;;;;15.94;47.26;100289.05;1745500;79;21487;-69
2021/11/01 02:21:53;;;;;;;9.63;8.63;;;;;;;15.95;47.28;100288.02;1747153;80;21034;-68
2021/11/01 02:24:55;;;;;;;9.95;8.75;;;;;;;15.93;47.29;100284.70;1744699;80;21030;-69
2021/11/01 02:27:22;;;;;;;;;;;;;;;15.91;47.25;100288.08;1755586;79;21154;-69
2021/11/01 02:29:49;;;;;;;9.83;8.83;;;;;;;15.89;47.32;100288.78;1748351;79;20167;-69
2021/11/01 02:32:15;;;;;;;10.35;9.00;;;;;;;15.85;47.35;100286.16;1765700;79;21016;-69
2021/11/01 02:34:42;;;;;;;11.18;9.80;;;;;;;15.84;47.38;100285.83;1762387;80;21061;-69
2021/11/01 02:37:08;;;;;;;10.90;9.40;;;;;;;15.83;47.37;100285.00;1745281;79;21001;-68
2021/11/01 02:39:51;;;;;;;9.65;8.65;;;;;;;15.83;47.34;100278.31;1779841;80;22017;-70
2021/11/01 02:42:36;;;;;;;10.58;9.13;;;;;;;15.83;47.33;100280.98;1774432;79;21073;-69
2021/11/01 02:45:08;;;;;;;11.12;9.68;;;;;;;15.82;47.32;100281.17;1768636;80;21065;-69
2021/11/01 02:47:35;;;;;;;10.08;8.68;;;;;;;15.81;47.34;100276.84;1760738;80;21010;-69
2021/11/01 02:50:04;;;;;;;10.93;9.25;;;;;;;15.81;47.38;100275.51;1751553;80;21553;-70
2021/11/01 02:52:31;;;;;;;9.98;8.63;;;;;;;15.81;47.32;100272.83;1760376;79;21685;-69
2021/11/01 02:54:58;;;;;;;9.83;8.83;;;;;;;15.80;47.32;100271.16;1774792;80;21021;-69
2021/11/01 02:57:24;;;;;;;11.48;9.83;;;;;;;15.79;47.31;100268.99;1781339;80;20986;-68
2021/11/01 02:59:51;;;;;;;10.98;9.28;;;;;;;15.80;47.29;100267.14;1782010;79;21013;-68
2021/11/01 03:02:17;;;;;;;10.28;8.85;;;;;;;15.79;47.25;100269.52;1778941;80;21010;-69
2021/11/01 03:04:44;;;;;;;10.35;9.20;;;;;;;15.78;47.27;100267.35;1758987;79;21007;-68
2021/11/01 03:07:11;;;;;;;10.28;9.28;;;;;;;15.78;47.25;100269.17;1777647;80;21107;-70
2021/11/01 03:09:40;;;;;;;12.40;10.30;;;;;;;15.77;47.23;100267.02;1762119;79;21533;-70
2021/11/01 03:12:09;;;;;;;10.95;9.43;;;;;;;15.77;47.22;100269.70;1763680;80;20986;-69
2021/11/01 03:14:44;;;;;;;10.95;9.85;;;;;;;15.76;47.24;100276.09;1757040;79;21069;-69
2021/11/01 03:17:17;;;;;;;10.78;9.40;;;;;;;15.75;47.21;100267.72;1764885;80;21829;-69
2021/11/01 03:19:48;;;;;;;10.78;9.68;;;;;;;15.74;47.21;100268.72;1778899;79;21062;-70
2021/11/01 03:22:14;;;;;;;11.73;10.10;;;;;;;15.72;47.19;100263.55;1749187;80;21502;-69
2021/11/01 03:24:42;;;;;;;10.30;9.00;;;;;;;15.73;47.21;100268.41;1759897;79;21016;-70
2021/11/01 03:27:09;;;;;;;10.88;9.78;;;;;;;15.71;47.19;100262.39;1743072;79;21088;-71
2021/11/01 03:29:36;;;;;;;11.28;10.23;;;;;;;15.71;47.18;100261.05;1739401;81;21190;-70
2021/11/01 03:32:04;;;;;;;12.03;10.13;;;;;;;15.70;47.17;100262.05;1739419;79;21028;-69
2021/11/01 03:34:32;;;;;;;12.23;9.63;;;;;;;15.68;47.20;100262.27;1749097;81;21032;-69
2021/11/01 03:37:04;;;;;;;11.90;10.68;;;;;;;15.67;47.19;100262.45;1749807;79;21005;-71
2021/11/01 03:39:28;;;;;;;10.45;8.90;;;;;;;15.67;47.15;100258.44;1729635;80;21567;-70
2021/11/01 03:41:55;;;;;;;10.90;9.80;;;;;;;15.67;47.15;100253.90;1754419;79;21659;-69
2021/11/01 03:44:27;;;;;;;11.12;9.93;;;;;;;15.65;47.16;100249.24;1751215;80;21070;-69
2021/11/01 03:46:55;;;;;;;11.53;10.05;;;;;;;15.64;47.20;100250.25;1751474;81;21060;-70
2021/11/01 03:49:18;;;;;;;11.48;10.28;;;;;;;15.63;47.18;100254.47;1747601;79;21525;-69
2021/11/01 03:51:50;;;;;;;11.63;10.08;;;;;;;15.62;47.18;100250.94;1766092;80;21039;-69
2021/11/01 03:54:16;;;;;;;10.75;9.50;;;;;;;15.62;47.18;100248.78;1759595;81;21144;-69
2021/11/01 03:56:44;;;;;;;10.95;9.88;;;;;;;15.61;47.18;100240.45;1762098;80;21149;-69
2021/11/01 03:59:11;;;;;;;11.22;10.08;;;;;;;15.59;47.18;100236.61;1753405;80;21019;-69
2021/11/01 04:01:39;;;;;;;11.88;10.10;;;;;;;15.58;47.18;100232.26;1745623;79;21091;-68
2021/11/01 04:04:07;;;;;;;11.63;10.43;;;;;;;15.57;47.14;100238.66;1740748;79;21051;-69
2021/11/01 04:06:34;;;;;;;14.55;10.70;;;;;;;15.56;47.15;100232.95;1756372;79;21135;-69
2021/11/01 04:09:00;;;;;;;12.85;10.60;;;;;;;15.56;47.13;100237.49;1742496;79;21048;-71
2021/11/01 04:11:28;;;;;;;11.57;10.35;;;;;;;15.56;47.16;100237.49;1729443;80;21057;-69
2021/11/01 04:14:02;;;;;;;11.73;10.53;;;;;;;15.53;47.17;100230.16;1759468;81;21008;-70
2021/11/01 04:16:40;;;;;;;12.30;10.55;;;;;;;15.54;47.13;100230.98;1758075;79;21017;-71
2021/11/01 04:19:05;;;;;;;12.37;10.90;;;;;;;15.52;47.17;100223.64;1747951;81;21172;-69
2021/11/01 04:21:28;;;;;;;11.60;9.93;;;;;;;15.50;47.18;100223.83;1765036;81;21511;-69
2021/11/01 04:23:58;;;;;;;11.90;10.68;;;;;;;15.50;47.16;100221.67;1769703;81;21517;-69
2021/11/01 04:26:23;;;;;;;11.75;10.43;;;;;;;15.49;47.14;100215.98;1746878;79;21521;-70
2021/11/01 04:28:51;;;;;;;11.65;10.43;;;;;;;15.47;47.13;100218.87;1732801;80;21568;-69
2021/11/01 04:31:24;;;;;;;12.15;10.58;;;;;;;15.47;47.14;100208.16;1722667;81;22051;-69
2021/11/01 04:33:46;;;;;;;11.08;9.98;;;;;;;15.45;47.14;100212.88;1732655;80;20997;-70
2021/11/01 04:36:13;;;;;;;13.05;11.05;;;;;;;15.44;47.15;100213.06;1757271;81;21080;-69
2021/11/01 04:38:57;;;;;;;14.87;11.38;;;;;;;15.43;47.15;100215.40;1744577;80;21063;-69
2021/11/01 04:44:15;;;;;;;13.03;11.63;;;;;;;15.42;47.18;100214.58;1713500;82;23223;-69
2021/11/01 04:54:40;;;;;;;13.72;10.90;;;;;;;15.36;47.17;100218.02;1757363;80;21540;-68
2021/11/01 04:57:07;;;;;;;13.40;11.12;;;;;;;15.34;47.17;100212.02;1768632;80;21563;-69
2021/11/01 04:59:35;;;;;;;12.73;11.03;;;;;;;15.33;47.19;100213.02;1756978;80;21109;-69
2021/11/01 05:02:03;;;;;;;13.32;11.93;;;;;;;15.32;47.20;100206.02;1765997;79;21033;-68
2021/11/01 05:04:32;;;;;;;13.48;11.15;;;;;;;15.30;47.17;100210.22;1756302;79;21033;-69
2021/11/01 05:07:03;;;;;;;12.10;10.80;;;;;;;15.30;47.21;100210.22;1756050;80;21073;-70
2021/11/01 05:09:51;;;;;;;13.28;11.38;;;;;;;15.30;47.19;100216.91;1755731;79;21090;-69
2021/11/01 05:15:15;;;;;;;13.53;12.10;;;;;;;15.29;47.19;100211.73;1758447;80;21025;-69
2021/11/01 05:19:36;;;;;;;13.38;11.35;;;;;;;15.27;47.19;100205.75;1721085;79;21014;-69
2021/11/01 05:22:16;;;;;;;12.80;11.08;;;;;;;15.26;47.19;100212.95;1754783;80;21111;-69
2021/11/01 05:24:41;;;;;;;12.65;11.35;;;;;;;15.27;47.23;100211.09;1752017;80;21667;-69
2021/11/01 05:29:51;;;;;;;13.32;11.43;;;;;;;15.25;47.20;100209.13;1745643;80;20978;-69
2021/11/01 05:32:16;;;;;;;13.15;11.33;;;;;;;15.26;47.22;100213.44;1756296;80;21068;-69
2021/11/01 05:34:41;;;;;;;12.47;11.00;;;;;;;15.24;47.21;100213.66;1760972;79;21094;-70
2021/11/01 05:37:08;;;;;;;12.70;11.40;;;;;;;15.25;47.22;100206.44;1752632;80;21040;-69
2021/11/01 05:39:35;;;;;;;14.10;12.28;;;;;;;15.24;47.19;100209.64;1761070;79;21454;-69
2021/11/01 05:42:01;;;;;;;14.78;12.07;;;;;;;15.25;47.18;100211.80;1749617;80;21553;-69
2021/11/01 05:44:28;;;;;;;13.38;11.45;;;;;;;15.26;47.21;100214.78;1761345;80;20998;-70
2021/11/01 05:46:54;;;;;;;12.73;11.45;;;;;;;15.24;47.16;100210.97;1763254;79;21825;-69
2021/11/01 05:49:22;;;;;;;14.43;12.13;;;;;;;15.25;47.15;100213.95;1731702;81;21040;-69
2021/11/01 05:51:54;;;;;;;14.03;11.97;;;;;;;15.26;47.16;100223.66;1731685;81;21581;-70
2021/11/01 05:54:24;;;;;;;14.65;12.78;;;;;;;15.25;47.14;100223.33;1731514;81;21056;-69
2021/11/01 05:56:58;;;;;;;14.60;12.50;;;;;;;15.26;47.16;100220.98;1734884;80;21843;-70
2021/11/01 06:02:34;;;;;;;13.72;12.33;;;;;;;15.26;47.11;100223.66;1761952;80;21492;-69
2021/11/01 06:09:58;;;;;;;16.00;13.75;;;;;;;15.27;47.14;100230.66;1752431;81;20982;-70
2021/11/01 06:15:08;;;;;;;13.98;12.47;;;;;;;15.28;47.11;100232.84;1753388;80;21077;-69
2021/11/01 06:17:37;;;;;;;13.98;12.58;;;;;;;15.28;47.07;100228.83;1761372;80;21037;-69
2021/11/01 06:20:05;;;;;;;14.93;13.30;;;;;;;15.27;47.12;100230.66;1746514;80;21061;-70
2021/11/01 06:22:32;;;;;;;15.53;12.78;;;;;;;15.29;47.15;100233.16;1769526;80;21013;-69
2021/11/01 06:25:06;;;;;;;13.60;12.20;;;;;;;15.30;47.14;100228.95;1754108;79;21139;-70
2021/11/01 06:27:31;;;;;;;15.38;13.55;;;;;;;15.31;47.15;100228.44;1754318;80;21010;-71
2021/11/01 06:45:31;;;;;;;15.88;12.53;;;;;;;15.40;47.04;100219.30;1744652;79;21497;-70
2021/11/01 06:58:37;;;;;;;13.70;12.30;;;;;;;15.44;47.00;100219.23;1768467;79;21474;-69
2021/11/01 07:14:44;;;;;;;14.65;13.15;;;;;;;15.53;46.93;100211.94;1744629;79;21065;-69
2021/11/01 07:17:12;;;;;;;14.38;12.88;;;;;;;15.54;46.90;100213.06;1756845;80;21230;-70
2021/11/01 07:19:52;;;;;;;13.60;12.10;;;;;;;15.57;46.89;100211.02;1757245;79;21101;-71
2021/11/01 07:22:42;;;;;;;14.18;12.68;;;;;;;15.59;46.87;100207.64;1757287;80;21588;-69
2021/11/01 07:38:45;;;;;;;13.60;12.20;;;;;;;15.70;46.79;100198.62;1752314;79;21585;-68
2021/11/01 08:34:17;;;;;;;12.33;11.08;;;;;;;16.49;46.18;100176.20;1754923;80;21524;-70
2021/11/01 09:13:03;;;;;;;13.93;11.53;;;;;;;17.62;45.45;100130.23;1781347;78;21005;-69
2021/11/01 09:20:37;;;;;;;13.00;11.73;;;;;;;17.88;45.38;100130.79;1642670;84;21066;-69
2021/11/01 09:28:11;;;;;;;11.38;10.25;;;;;;;18.13;45.29;100112.70;1764898;80;21046;-71
2021/11/01 09:36:49;;;;;;;11.55;10.43;;;;;;;18.39;45.13;100115.05;1756056;80;21023;-70
2021/11/01 09:38:57;;;;;;;11.12;9.93;;;;;;;18.49;45.08;100112.75;1768611;80;21555;-71
2021/11/01 09:41:10;;;;;;;12.50;11.20;;;;;;;18.56;45.03;100098.77;1766315;79;21070;-69
2021/11/01 09:43:37;;;;;;;12.23;11.05;;;;;;;18.65;44.96;100098.81;1769996;79;21100;-70
2021/11/01 10:07:49;;;;;;;11.45;10.35;;;;;;;20.35;43.32;100068.95;1776214;79;21996;-61
2021/11/01 10:10:16;;;;;;;10.50;9.60;;;;;;;20.56;42.91;100070.91;1789993;79;20955;-61
2021/11/01 10:12:45;;;;;;;11.43;10.32;;;;;;;20.63;42.79;100067.66;1803673;79;21187;-61
2021/11/01 10:18:05;;;;;;;10.38;9.28;;;;;;;20.71;42.71;100058.42;1837651;77;21564;-61
2021/11/01 10:20:35;;;;;;;10.43;9.23;;;;;;;20.76;42.69;100057.19;1811006;79;21518;-62
2021/11/01 10:23:20;;;;;;;11.28;10.08;;;;;;;20.78;42.72;100054.59;1813497;79;20902;-62
2021/11/01 10:25:47;;;;;;;10.53;9.23;;;;;;;20.81;42.73;100051.41;1790245;79;21436;-61
2021/11/01 10:28:13;;;;;;;10.53;9.43;;;;;;;20.85;42.73;100043.69;1808669;79;21022;-61
2021/11/01 10:30:40;;;;;;;10.20;9.20;;;;;;;20.88;42.70;100034.30;1815410;78;21006;-61
2021/11/01 10:33:07;;;;;;;10.32;9.18;;;;;;;20.92;42.68;100032.78;1784506;79;21082;-63
2021/11/01 10:35:37;;;;;;;10.00;9.00;;;;;;;20.95;42.67;100033.15;1814849;79;21010;-62
2021/11/01 10:38:31;;;;;;;10.28;9.38;;;;;;;21.00;42.70;100037.34;1814868;79;21799;-61
2021/11/01 11:11:13;;;;;;;11.28;8.98;;;;;;;21.63;42.38;100010.00;1741005;81;21029;-62
2021/11/01 11:13:38;;;;;;;9.10;8.30;;;;;;;21.68;42.36;100007.44;1690296;84;21074;-61
2021/11/01 11:16:02;;;;;;;9.28;8.38;;;;;;;21.72;42.33;100006.72;1723720;82;21025;-60
2021/11/01 11:18:53;;;;;;;9.55;8.65;;;;;;;21.77;42.28;100002.79;1712544;82;21583;-61
2021/11/01 11:24:32;;;;;;;8.93;8.10;;;;;;;21.89;42.20;99999.27;1712416;83;21090;-61
2021/11/01 11:38:10;;;;;;;9.18;8.38;;;;;;;22.07;41.97;99972.05;1707471;83;21015;-61
2021/11/01 11:48:32;;;;;;;9.78;8.00;;;;;;;22.25;41.88;99949.98;1723544;83;21380;-62
2021/11/01 11:50:52;;;;;;;8.83;8.03;;;;;;;22.30;41.82;99965.80;1722782;83;21034;-62
2021/11/01 11:53:24;;;;;;;8.20;7.40;;;;;;;22.36;41.80;99964.02;1723024;83;21113;-62
2021/11/01 11:56:08;;;;;;;8.73;7.92;;;;;;;22.41;41.72;99968.19;1695975;83;21050;-62
2021/11/01 11:58:37;;;;;;;9.45;8.40;;;;;;;22.45;41.68;99959.88;1696246;82;21099;-61
2021/11/01 12:01:31;;;;;;;8.73;7.92;;;;;;;22.50;41.60;99957.27;1709454;83;21041;-61
2021/11/01 12:03:58;;;;;;;8.88;8.05;;;;;;;22.55;41.58;99951.94;1629672;86;21122;-63
2021/11/01 12:06:52;;;;;;;8.13;7.42;;;;;;;22.61;41.49;99953.39;1684290;82;21550;-61
2021/11/01 12:09:21;;;;;;;8.53;7.72;;;;;;;22.65;41.47;99949.14;1717849;82;21547;-62
2021/11/01 12:17:29;;;;;;;7.50;6.80;;;;;;;22.93;41.16;99942.34;1705555;82;21590;-63
2021/11/01 12:20:07;;;;;;;8.45;7.65;;;;;;;23.13;40.89;99935.64;1705862;82;21006;-62
2021/11/01 12:22:37;;;;;;;8.88;7.87;;;;;;;23.32;40.64;99934.32;1723902;83;21031;-63
2021/11/01 12:25:09;;;;;;;8.43;7.70;;;;;;;23.55;40.35;99933.31;1724302;83;21126;-63
2021/11/01 12:27:42;;;;;;;8.18;7.47;;;;;;;23.73;40.08;99924.06;1716742;82;21089;-62
2021/11/01 12:30:14;;;;;;;7.95;7.17;;;;;;;23.91;39.79;99922.14;1749338;82;21041;-63
2021/11/01 12:32:42;;;;;;;9.98;8.15;;;;;;;24.07;39.58;99915.85;1718142;82;21061;-62
2021/11/01 12:37:47;;;;;;;8.20;7.50;;;;;;;24.31;39.17;99906.88;1742801;82;21111;-62
2021/11/01 12:58:57;;;;;;;7.47;6.78;;;;;;;23.99;39.34;99911.39;1740946;82;21651;-61
2021/11/01 13:01:24;;;;;;;8.58;7.87;;;;;;;23.84;39.55;99906.61;1729785;82;21085;-61
2021/11/01 13:03:54;;;;;;;7.97;7.17;;;;;;;23.67;39.75;99902.02;1746253;81;21067;-62
2021/11/01 13:06:54;;;;;;;8.08;7.37;;;;;;;23.55;39.93;99906.73;1680892;83;21542;-62
2021/11/01 13:09:27;;;;;;;7.62;6.92;;;;;;;23.42;40.07;99907.90;1715554;82;21011;-62
2021/11/01 13:19:54;;;;;;;8.30;7.50;;;;;;;22.97;40.70;99897.44;1703778;82;21364;-62
2021/11/01 13:22:31;;;;;;;7.22;6.70;;;;;;;22.88;40.81;99897.55;1716336;82;21148;-62
2021/11/01 13:48:33;;;;;;;7.85;7.15;;;;;;;24.02;38.98;99859.34;1758104;80;22874;-64
2021/11/01 14:59:38;;;;;;;7.75;7.05;;;;;;;21.06;41.69;99866.80;1857723;75;21519;-62
2021/11/01 15:07:42;;;;;;;9.03;7.25;;;;;;;20.71;42.15;99859.48;1857520;75;20961;-62
2021/11/01 15:14:44;;;;;;;7.85;7.12;;;;;;;20.40;42.56;99861.36;1824066;77;21044;-61
2021/11/01 15:25:26;;;;;;;7.87;7.17;;;;;;;20.06;43.04;99865.56;1857535;75;21033;-60
2021/11/01 15:28:02;;;;;;;7.95;7.22;;;;;;;19.97;43.13;99864.22;1857454;77;21123;-61
2021/11/01 16:19:15;;;;;;;8.08;7.28;;;;;;;18.86;44.73;99878.36;1826312;77;20992;-63
2021/11/01 16:21:42;;;;;;;8.15;7.42;;;;;;;18.82;44.79;99881.73;1825886;77;21516;-62
2021/11/01 16:24:11;;;;;;;7.25;6.65;;;;;;;18.80;44.83;99879.77;1825880;77;21048;-62
2021/11/01 16:26:38;;;;;;;8.45;7.65;;;;;;;18.78;44.85;99879.14;1826023;77;21020;-61
2021/11/01 16:29:15;;;;;;;8.40;7.60;;;;;;;18.75;44.89;99880.38;1841604;77;20974;-61
2021/11/01 16:31:49;;;;;;;8.93;8.05;;;;;;;18.72;44.93;99884.05;1855422;76;21033;-62
2021/11/01 16:34:23;;;;;;;8.20;7.47;;;;;;;18.70;44.98;99877.54;1826188;77;21483;-62
2021/11/01 16:39:35;;;;;;;7.37;6.67;;;;;;;18.65;45.01;99884.08;1826362;77;21496;-61
2021/11/01 16:41:59;;;;;;;7.47;6.78;;;;;;;18.62;45.04;99888.05;1825505;77;21063;-60
2021/11/01 16:44:30;;;;;;;8.58;7.78;;;;;;;18.60;45.09;99885.25;1826576;77;21495;-61
2021/11/01 16:46:56;;;;;;;8.18;7.37;;;;;;;18.58;45.09;99885.48;1826600;77;22084;-61
2021/11/01 16:49:24;;;;;;;8.25;7.45;;;;;;;18.57;45.14;99888.39;1826538;77;21063;-62
2021/11/01 16:51:51;;;;;;;8.13;7.33;;;;;;;18.54;45.14;99888.28;1826628;77;21023;-61
2021/11/01 16:54:22;;;;;;;8.03;7.33;;;;;;;18.52;45.15;99882.30;1826346;77;21059;-62
2021/11/01 16:56:58;;;;;;;7.62;6.92;;;;;;;18.51;45.18;99878.50;1826416;77;21043;-62
2021/11/01 17:02:28;;;;;;;7.80;7.05;;;;;;;18.46;45.24;99884.52;1826572;77;20971;-61
2021/11/01 17:04:42;;;;;;;7.90;7.20;;;;;;;18.43;45.28;99882.27;1824040;77;21492;-61
2021/11/01 17:26:02;;;;;;;7.85;7.03;;;;;;;18.22;45.51;99866.76;1825623;77;21503;-63
2021/11/01 18:43:03;;;;;;;8.50;7.70;;;;;;;17.67;46.28;99806.73;1826018;77;21517;-61
2021/11/01 18:53:30;;;;;;;8.65;7.83;;;;;;;17.62;46.35;99801.69;1826641;77;21063;-62
2021/11/01 18:55:56;;;;;;;7.92;7.12;;;;;;;17.62;46.36;99799.00;1826064;77;21003;-62
2021/11/01 18:58:26;;;;;;;8.13;7.40;;;;;;;17.61;46.39;99800.02;1826090;77;21065;-63
2021/11/01 19:00:56;;;;;;;8.80;7.97;;;;;;;17.60;46.40;99794.36;1826035;77;21096;-61
2021/11/01 19:03:24;;;;;;;9.23;7.92;;;;;;;17.59;46.42;99794.86;1830241;77;21547;-61
2021/11/01 19:09:13;;;;;;;8.23;7.42;;;;;;;17.57;46.41;99786.72;1826167;77;21056;-62
2021/11/01 20:07:11;;;;;;;8.40;7.60;;;;;;;17.28;46.85;99764.71;1770426;80;22092;-61
2021/11/01 20:09:58;;;;;;;7.87;7.08;;;;;;;17.24;46.88;99758.12;1767518;79;21144;-61
2021/11/01 20:14:48;;;;;;;8.45;7.65;;;;;;;17.26;46.86;99754.17;1757386;79;21002;-61
2021/11/01 21:24:36;;;;;;;9.53;8.35;;;;;;;16.95;47.16;99717.31;1778747;79;21032;-60
2021/11/01 21:27:00;;;;;;;10.08;9.18;;;;;;;16.94;47.18;99718.37;1773483;80;21043;-61
2021/11/01 21:29:27;;;;;;;10.60;9.28;;;;;;;16.94;47.18;99706.30;1781140;79;21053;-62
2021/11/01 21:31:55;;;;;;;10.15;9.15;;;;;;;16.94;47.21;99713.00;1778294;79;21128;-61
2021/11/01 21:34:33;;;;;;;9.78;8.78;;;;;;;16.93;47.19;99708.66;1780760;78;20972;-60
2021/11/01 21:36:56;;;;;;;11.15;8.93;;;;;;;16.94;47.18;99705.45;1780941;78;21062;-65
2021/11/01 21:39:22;;;;;;;10.28;9.35;;;;;;;16.94;47.17;99702.77;1800336;79;21739;-62
2021/11/01 21:41:49;;;;;;;10.30;9.30;;;;;;;16.92;47.18;99701.66;1806209;79;21516;-61
2021/11/01 21:44:15;;;;;;;10.00;9.03;;;;;;;16.92;47.17;99700.81;1784714;79;21048;-62
2021/11/01 21:46:42;;;;;;;10.95;9.70;;;;;;;16.93;47.14;99698.45;1783097;79;20980;-62
2021/11/01 21:49:09;;;;;;;11.05;9.83;;;;;;;16.92;47.12;99701.66;1783494;79;21014;-61
2021/11/01 21:51:40;;;;;;;11.63;10.45;;;;;;;16.92;47.14;99694.10;1789269;79;21053;-62
2021/11/01 21:56:58;;;;;;;11.55;10.03;;;;;;;16.90;47.12;99696.98;1782488;79;21047;-61
2021/11/01 22:20:44;;;;;;;12.75;10.43;;;;;;;16.79;47.18;99676.98;1790933;79;21038;-61
2021/11/01 22:23:20;;;;;;;11.90;10.70;;;;;;;16.78;47.19;99683.89;1793279;79;21729;-62
2021/11/01 22:25:47;;;;;;;12.20;11.00;;;;;;;16.78;47.19;99676.66;1801716;79;21400;-61
2021/11/01 22:33:52;;;;;;;11.25;10.03;;;;;;;16.76;47.19;99676.58;1777543;79;21069;-61
2021/11/01 22:46:41;;;;;;;13.20;10.72;;;;;;;16.71;47.22;99653.89;1800563;79;21081;-61
2021/11/01 22:57:08;;;;;;;12.60;11.40;;;;;;;16.67;47.25;99651.85;1756726;80;21008;-62
2021/11/01 22:59:34;;;;;;;12.25;11.00;;;;;;;16.65;47.27;99651.20;1779725;79;20991;-60
2021/11/01 23:02:00;;;;;;;12.35;11.10;;;;;;;16.65;47.25;99645.84;1784317;79;21107;-63
2021/11/01 23:04:44;;;;;;;12.65;11.35;;;;;;;16.64;47.24;99649.05;1788276;79;21024;-61
2021/11/01 23:31:38;;;;;;;12.10;10.90;;;;;;;16.54;47.34;99621.03;1791544;79;21011;-61
2021/11/01 23:34:14;;;;;;;13.22;11.93;;;;;;;16.51;47.32;99614.22;1759384;80;21056;-61
2021/11/01 23:36:41;;;;;;;12.50;11.33;;;;;;;16.51;47.32;99612.87;1782663;79;21038;-62
2021/11/01 23:39:13;;;;;;;12.30;11.05;;;;;;;16.51;47.35;99610.20;1780374;79;21005;-61
2021/11/01 23:41:47;;;;;;;12.95;11.78;;;;;;;16.50;47.35;99609.91;1780060;79;21099;-62
2021/11/01 23:44:13;;;;;;;13.62;11.38;;;;;;;16.49;47.33;99602.88;1789935;79;21077;-60
2021/11/01 23:46:40;;;;;;;13.72;12.37;;;;;;;16.50;47.37;99607.22;1791130;79;21082;-61
2021/11/01 23:49:06;;;;;;;12.65;11.35;;;;;;;16.49;47.37;99604.22;1785250;79;21011;-60
2021/11/01 23:51:36;;;;;;;13.70;11.93;;;;;;;16.47;47.32;99600.41;1786715;79;21480;-61
2021/11/01 23:56:35;;;;;;;14.70;12.97;;;;;;;16.47;47.31;99596.91;1787365;79;20999;-60
2021/11/01 23:59:02;;;;;;;12.63;11.43;;;;;;;16.46;47.32;99589.39;1784618;79;21037;-61
